createdAt,value
2023-02-24T00:04:52.121Z,60.48
2023-02-24T00:09:54.230Z,60.64
2023-02-24T00:14:56.467Z,60.71
2023-02-24T00:19:58.614Z,60.89
2023-02-24T00:25:02.915Z,60.86
2023-02-24T00:30:06.664Z,60.70
2023-02-24T00:35:09.600Z,60.44
2023-02-24T00:40:12.428Z,61.16
2023-02-24T00:45:17.055Z,61.19
2023-02-24T00:50:19.270Z,60.99
2023-02-24T00:55:23.611Z,60.79
2023-02-24T01:00:26.095Z,60.99
2023-02-24T01:05:28.764Z,61.07
2023-02-24T01:10:30.983Z,61.12
2023-02-24T01:15:33.052Z,61.34
2023-02-24T01:20:35.730Z,61.39
2023-02-24T01:25:39.241Z,62.03
2023-02-24T01:30:43.331Z,61.79
2023-02-24T01:35:45.877Z,61.40
2023-02-24T01:40:56.793Z,61.13
2023-02-24T01:45:59.081Z,61.33
2023-02-24T01:51:02.110Z,61.43
2023-02-24T01:56:05.901Z,61.03
2023-02-24T02:01:10.466Z,61.75
2023-02-24T02:06:14.292Z,62.00
2023-02-24T02:11:23.906Z,61.80
2023-02-24T02:16:51.785Z,61.32
2023-02-24T02:22:05.864Z,61.58
2023-02-24T02:27:29.764Z,61.29
2023-02-24T02:32:57.588Z,61.10
2023-02-24T02:38:05.505Z,61.68
2023-02-24T02:43:32.456Z,61.59
2023-02-24T02:48:55.983Z,61.54
2023-02-24T02:54:16.783Z,61.24
2023-02-24T02:59:23.681Z,61.60
2023-02-24T03:04:26.912Z,61.80
2023-02-24T03:09:37.384Z,61.86
2023-02-24T03:14:46.403Z,62.11
2023-02-24T03:20:00.435Z,62.16
2023-02-24T03:25:05.492Z,62.65
2023-02-24T03:30:21.590Z,63.99
2023-02-24T03:35:28.151Z,63.46
2023-02-24T03:40:34.006Z,62.79
2023-02-24T03:45:38.631Z,62.80
2023-02-24T03:50:42.594Z,62.62
2023-02-24T03:56:00.838Z,62.94
2023-02-24T04:01:15.172Z,62.41
2023-02-24T04:06:59.958Z,62.34
2023-02-24T04:12:32.294Z,62.90
2023-02-24T04:17:42.959Z,63.09
2023-02-24T04:22:50.026Z,62.53
2023-02-24T04:27:54.897Z,62.36
2023-02-24T04:32:57.100Z,62.31
2023-02-24T04:37:59.658Z,62.17
2023-02-24T04:43:02.164Z,62.29
2023-02-24T04:48:04.409Z,62.79
2023-02-24T04:53:10.329Z,62.97
2023-02-24T04:58:19.570Z,62.59
2023-02-24T05:03:28.756Z,62.48
2023-02-24T05:08:31.555Z,63.42
2023-02-24T05:13:34.108Z,63.31
2023-02-24T05:18:37.507Z,63.57
2023-02-24T05:23:44.727Z,63.34
2023-02-24T05:28:52.510Z,63.50
2023-02-24T05:33:58.022Z,63.41
2023-02-24T05:39:07.010Z,63.74
2023-02-24T05:44:14.138Z,63.42
2023-02-24T05:49:24.248Z,63.29
2023-02-24T05:54:32.123Z,63.47
2023-02-24T05:59:35.214Z,63.23
2023-02-24T06:04:51.781Z,64.80
2023-02-24T06:09:57.645Z,64.73
2023-02-24T06:15:00.448Z,64.61
2023-02-24T06:20:05.526Z,65.34
2023-02-24T06:25:08.716Z,65.07
2023-02-24T06:30:11.717Z,64.84
2023-02-24T06:35:13.937Z,64.95
2023-02-24T06:40:16.482Z,65.23
2023-02-24T06:45:19.124Z,65.35
2023-02-24T06:50:22.055Z,65.12
2023-02-24T06:55:27.391Z,65.06
2023-02-24T07:00:41.412Z,65.31
2023-02-24T07:05:54.621Z,64.69
2023-02-24T07:11:00.157Z,64.55
2023-02-24T07:16:07.477Z,64.87
2023-02-24T07:21:12.943Z,65.05
2023-02-24T07:26:17.784Z,65.25
2023-02-24T07:31:23.350Z,64.85
2023-02-24T07:36:30.497Z,64.34
2023-02-24T07:41:33.118Z,64.31
2023-02-24T07:46:35.536Z,64.17
2023-02-24T07:51:37.786Z,64.61
2023-02-24T07:56:46.378Z,64.52
2023-02-24T08:01:52.103Z,63.96
2023-02-24T08:06:58.939Z,63.76
2023-02-24T08:12:01.698Z,63.56
2023-02-24T08:17:05.793Z,63.69
2023-02-24T08:22:25.819Z,63.77
2023-02-24T08:27:32.939Z,62.99
2023-02-24T08:32:38.217Z,62.64
2023-02-24T08:37:41.098Z,62.61
2023-02-24T08:42:43.213Z,62.82
2023-02-24T08:47:45.693Z,62.42
2023-02-24T08:52:47.804Z,62.32
2023-02-24T08:57:53.672Z,61.79
2023-02-24T09:02:56.508Z,61.84
2023-02-24T09:07:58.668Z,61.50
2023-02-24T09:13:01.572Z,61.32
2023-02-24T09:18:07.871Z,61.13
2023-02-24T09:23:20.456Z,60.67
2023-02-24T09:28:27.907Z,60.69
2023-02-24T09:33:42.143Z,60.46
2023-02-24T09:39:02.244Z,59.65
2023-02-24T09:44:18.658Z,59.45
2023-02-24T09:49:24.993Z,58.70
2023-02-24T09:54:35.675Z,58.41
2023-02-24T10:00:25.211Z,58.63
2023-02-24T10:05:38.909Z,59.32
2023-02-24T10:11:01.071Z,59.58
2023-02-24T10:16:07.402Z,60.54
2023-02-24T10:21:31.972Z,60.39
2023-02-24T10:26:59.626Z,59.78
2023-02-24T10:32:19.123Z,59.04
2023-02-24T10:37:29.224Z,58.87
2023-02-24T10:42:34.894Z,58.45
2023-02-24T10:47:37.070Z,57.21
2023-02-24T10:52:53.631Z,56.57
2023-02-24T10:58:16.186Z,56.34
2023-02-24T11:03:36.668Z,55.58
2023-02-24T11:08:55.053Z,55.30
2023-02-24T11:14:22.424Z,55.31
2023-02-24T11:19:29.786Z,54.86
2023-02-24T11:24:32.361Z,54.35
2023-02-24T11:30:01.615Z,53.46
2023-02-24T11:35:21.393Z,52.74
2023-02-24T11:40:28.808Z,52.58
2023-02-24T11:45:40.128Z,51.86
2023-02-24T11:50:47.241Z,51.22
2023-02-24T11:55:57.431Z,50.85
2023-02-24T12:01:10.606Z,49.88
2023-02-24T12:06:31.044Z,49.32
2023-02-24T12:11:41.207Z,49.29
2023-02-24T12:16:48.340Z,48.42
2023-02-24T12:22:16.099Z,48.05
2023-02-24T12:27:21.221Z,47.58
2023-02-24T12:32:43.224Z,45.92
2023-02-24T12:38:19.071Z,45.33
2023-02-24T12:43:26.878Z,44.19
2023-02-24T12:49:01.341Z,45.06
2023-02-24T12:54:14.446Z,44.91
2023-02-24T12:59:22.875Z,43.97
2023-02-24T13:05:04.111Z,44.19
2023-02-24T13:10:14.933Z,44.33
2023-02-24T13:15:26.139Z,43.32
2023-02-24T13:20:34.389Z,42.10
2023-02-24T13:25:37.905Z,41.98
2023-02-24T13:30:44.232Z,42.24
2023-02-24T13:35:49.467Z,42.92
2023-02-24T13:40:51.941Z,43.20
2023-02-24T13:45:58.300Z,41.59
2023-02-24T13:51:32.244Z,40.76
2023-02-24T13:56:43.244Z,40.63
2023-02-24T14:01:58.106Z,40.09
2023-02-24T14:07:04.329Z,39.27
2023-02-24T14:12:19.700Z,40.40
2023-02-24T14:17:29.951Z,38.63
2023-02-24T14:22:32.927Z,38.59
2023-02-24T14:27:35.649Z,39.77
2023-02-24T14:32:37.912Z,40.11
2023-02-24T14:37:40.220Z,39.38
2023-02-24T14:42:50.122Z,39.75
2023-02-24T14:47:54.084Z,39.58
2023-02-24T14:53:10.265Z,40.04
2023-02-24T14:58:18.109Z,40.02
2023-02-24T15:03:29.855Z,40.48
2023-02-24T15:08:43.638Z,40.50
2023-02-24T15:13:56.380Z,40.16
2023-02-24T15:19:01.669Z,39.73
2023-02-24T15:24:13.932Z,39.98
2023-02-24T15:29:23.218Z,39.97
2023-02-24T15:34:37.036Z,40.15
2023-02-24T15:39:43.136Z,40.81
2023-02-24T15:45:25.784Z,41.87
2023-02-24T15:50:30.435Z,42.93
2023-02-24T15:55:33.133Z,43.77
2023-02-24T16:00:35.492Z,44.17
2023-02-24T16:05:38.190Z,44.65
2023-02-24T16:10:41.169Z,45.01
2023-02-24T16:15:45.889Z,45.92
2023-02-24T16:20:54.906Z,46.24
2023-02-24T16:25:59.571Z,46.59
2023-02-24T16:31:02.874Z,46.60
2023-02-24T16:36:12.332Z,47.01
2023-02-24T16:41:14.484Z,47.55
2023-02-24T16:46:20.424Z,47.81
2023-02-24T16:51:23.184Z,48.36
2023-02-24T16:56:25.328Z,49.13
2023-02-24T17:01:27.522Z,49.86
2023-02-24T17:06:30.042Z,50.82
2023-02-24T17:11:33.194Z,51.13
2023-02-24T17:16:39.788Z,51.49
2023-02-24T17:21:44.728Z,51.99
2023-02-24T17:26:47.233Z,52.34
2023-02-24T17:31:49.517Z,52.46
2023-02-24T17:36:51.890Z,53.65
2023-02-24T17:41:54.115Z,53.66
2023-02-24T17:46:56.396Z,53.76
2023-02-24T17:51:58.588Z,53.90
2023-02-24T17:57:00.862Z,54.00
2023-02-24T18:02:03.598Z,54.44
2023-02-24T18:07:05.745Z,54.39
2023-02-24T18:12:07.966Z,54.80
2023-02-24T18:17:10.115Z,54.83
2023-02-24T18:22:12.289Z,55.15
2023-02-24T18:27:14.514Z,55.17
2023-02-24T18:32:16.904Z,55.37
2023-02-24T18:37:19.330Z,55.00
2023-02-24T18:42:21.494Z,55.32
2023-02-24T18:47:23.654Z,55.81
2023-02-24T18:52:25.824Z,55.75
2023-02-24T18:57:28.135Z,55.83
2023-02-24T19:02:30.568Z,55.71
2023-02-24T19:07:32.834Z,55.73
2023-02-24T19:12:34.934Z,56.01
2023-02-24T19:17:37.110Z,56.38
2023-02-24T19:22:39.251Z,56.39
2023-02-24T19:27:41.447Z,55.97
2023-02-24T19:32:43.738Z,56.67
2023-02-24T19:37:49.281Z,57.07
2023-02-24T19:42:53.385Z,57.46
2023-02-24T19:47:55.465Z,57.22
2023-02-24T19:52:57.633Z,57.19
2023-02-24T19:58:00.150Z,57.41
2023-02-24T20:03:02.244Z,57.94
2023-02-24T20:08:04.534Z,58.27
2023-02-24T20:13:07.275Z,58.84
2023-02-24T20:18:09.380Z,58.92
2023-02-24T20:23:11.529Z,58.92
2023-02-24T20:28:13.744Z,58.91
2023-02-24T20:33:16.688Z,58.85
2023-02-24T20:38:18.855Z,59.13
2023-02-24T20:43:21.379Z,59.43
2023-02-24T20:48:23.735Z,58.95
2023-02-24T20:53:25.862Z,59.29
2023-02-24T20:58:28.024Z,59.46
2023-02-24T21:03:30.127Z,59.53
2023-02-24T21:08:32.264Z,59.23
2023-02-24T21:13:43.159Z,59.08
2023-02-24T21:18:47.117Z,59.81
2023-02-24T21:23:50.788Z,60.00
2023-02-24T21:28:58.020Z,60.24
2023-02-24T21:34:00.236Z,60.04
2023-02-24T21:39:02.448Z,60.54
2023-02-24T21:44:05.371Z,60.13
2023-02-24T21:49:08.244Z,60.10
2023-02-24T21:54:12.740Z,61.33
2023-02-24T21:59:14.966Z,60.24
2023-02-24T22:04:19.243Z,60.46
2023-02-24T22:09:21.485Z,60.79
2023-02-24T22:14:23.675Z,61.67
2023-02-24T22:19:25.774Z,60.63
2023-02-24T22:24:27.913Z,60.35
2023-02-24T22:29:30.109Z,60.18
2023-02-24T22:34:32.270Z,60.23
2023-02-24T22:39:34.764Z,60.75
2023-02-24T22:44:38.209Z,60.51
2023-02-24T22:49:40.302Z,61.51
2023-02-24T22:54:43.004Z,60.36
2023-02-24T22:59:45.632Z,60.16
2023-02-24T23:04:47.811Z,60.37
2023-02-24T23:09:53.259Z,60.43
2023-02-24T23:14:55.465Z,60.57
2023-02-24T23:19:59.015Z,60.13
2023-02-24T23:25:01.644Z,59.71
2023-02-24T23:30:04.407Z,59.96
2023-02-24T23:35:07.082Z,59.56
2023-02-24T23:40:11.294Z,59.39
2023-02-24T23:45:13.425Z,58.63
2023-02-24T23:50:15.578Z,58.17
2023-02-24T23:55:17.853Z,58.36
